Time;durP1;ratioP1;P1;durP2;ratioP2;P2;SDS_P1;SDS_P2;PMS_P1;PMS_P2;Temp;Humidity;BMP_temperature;BMP_pressure;BME280_temperature;BME280_humidity;BME280_pressure;Samples;Min_cycle;Max_cycle;Signal;HPM_P1;HPM_P2
2022/02/07 00:01:20;;;;;;;14.48;2.30;;;;;;;;;;4853535;29;20112;-82
2022/02/07 00:03:36;;;;;;;12.30;2.25;;;;;;;;;;4830293;29;20093;-82
2022/02/07 00:06:03;;;;;;;12.60;2.22;;;;;;;;;;4841656;29;20049;-81
2022/02/07 00:08:29;;;;;;;15.45;2.53;;;;;;;;;;4837856;29;20164;-81
2022/02/07 00:10:56;;;;;;;20.02;2.80;;;;;;;;;;4851816;29;20373;-81
2022/02/07 00:13:22;;;;;;;20.17;3.17;;;;;;;;;;4841054;29;20928;-82
2022/02/07 00:15:48;;;;;;;20.75;2.90;;;;;;;;;;4840978;29;20466;-81
2022/02/07 00:18:16;;;;;;;17.48;2.80;;;;;;;;;;4825464;29;20109;-81
2022/02/07 00:20:42;;;;;;;17.85;2.90;;;;;;;;;;4853446;29;20567;-82
2022/02/07 00:23:08;;;;;;;14.48;2.78;;;;;;;;;;4822749;29;20109;-82
2022/02/07 00:25:35;;;;;;;19.52;3.00;;;;;;;;;;4838870;29;20052;-82
2022/02/07 00:28:01;;;;;;;25.77;4.38;;;;;;;;;;4829848;29;20053;-82
2022/02/07 00:30:28;;;;;;;17.77;3.00;;;;;;;;;;4824168;29;20041;-83
2022/02/07 00:32:54;;;;;;;19.58;3.38;;;;;;;;;;4842784;29;20068;-83
2022/02/07 00:35:23;;;;;;;23.02;3.45;;;;;;;;;;4841843;29;20132;-81
2022/02/07 00:37:51;;;;;;;21.35;3.03;;;;;;;;;;4854152;29;20116;-82
2022/02/07 00:40:33;;;;;;;17.60;3.25;;;;;;;;;;4840868;29;20046;-83
2022/02/07 00:43:03;;;;;;;30.60;3.92;;;;;;;;;;4838338;29;20041;-83
2022/02/07 00:48:00;;;;;;;22.90;3.22;;;;;;;;;;4837207;29;20485;-83
2022/02/07 00:50:31;;;;;;;23.45;3.90;;;;;;;;;;4852299;29;20559;-83
2022/02/07 00:52:57;;;;;;;22.25;2.90;;;;;;;;;;4869093;29;20085;-82
2022/02/07 00:55:23;;;;;;;32.67;3.92;;;;;;;;;;4838497;29;20394;-82
2022/02/07 00:57:49;;;;;;;21.48;2.58;;;;;;;;;;4820758;29;20053;-83
2022/02/07 01:00:16;;;;;;;19.10;2.40;;;;;;;;;;4835834;29;20037;-80
2022/02/07 01:02:43;;;;;;;23.95;3.47;;;;;;;;;;4827464;29;20152;-81
2022/02/07 01:05:10;;;;;;;17.70;2.30;;;;;;;;;;4850047;29;20078;-81
2022/02/07 01:07:36;;;;;;;18.65;2.78;;;;;;;;;;4854074;29;20053;-83
2022/02/07 01:10:03;;;;;;;24.00;2.80;;;;;;;;;;4855066;29;20128;-82
2022/02/07 01:15:08;;;;;;;16.88;2.92;;;;;;;;;;4825680;29;20094;-83
2022/02/07 01:51:04;;;;;;;20.27;2.55;;;;;;;;;;4834364;29;20057;-83
2022/02/07 01:55:49;;;;;;;15.57;2.45;;;;;;;;;;4838531;29;20053;-82
2022/02/07 01:58:16;;;;;;;22.70;4.03;;;;;;;;;;4837270;29;20057;-81
2022/02/07 02:00:42;;;;;;;25.25;2.92;;;;;;;;;;4835453;29;20100;-84
2022/02/07 02:03:08;;;;;;;23.63;4.80;;;;;;;;;;4843136;29;20042;-85
2022/02/07 02:05:37;;;;;;;22.92;3.22;;;;;;;;;;4843484;29;20244;-83
2022/02/07 02:08:06;;;;;;;17.83;3.40;;;;;;;;;;4825787;29;20053;-82
2022/02/07 02:10:34;;;;;;;31.40;4.40;;;;;;;;;;4826862;29;20197;-83
2022/02/07 02:13:09;;;;;;;23.38;3.45;;;;;;;;;;4859109;29;20092;-83
2022/02/07 02:37:50;;;;;;;21.60;3.45;;;;;;;;;;4838789;29;20140;-82
2022/02/07 02:45:40;;;;;;;22.75;3.72;;;;;;;;;;4842581;29;20481;-83
2022/02/07 02:48:16;;;;;;;16.48;4.50;;;;;;;;;;4844314;29;20049;-82
2022/02/07 02:50:43;;;;;;;17.00;3.83;;;;;;;;;;4841088;29;20856;-83
2022/02/07 02:53:11;;;;;;;18.90;2.70;;;;;;;;;;4827517;29;20509;-82
2022/02/07 02:55:38;;;;;;;29.65;3.80;;;;;;;;;;4855071;29;20519;-83
2022/02/07 02:58:05;;;;;;;24.00;3.38;;;;;;;;;;4841509;29;20053;-85
2022/02/07 03:00:32;;;;;;;17.38;3.25;;;;;;;;;;4859734;29;20098;-84
2022/02/07 03:02:58;;;;;;;27.50;4.72;;;;;;;;;;4874945;29;20417;-84
2022/02/07 03:05:25;;;;;;;29.02;4.03;;;;;;;;;;4842747;29;20051;-82
2022/02/07 03:07:51;;;;;;;30.27;4.45;;;;;;;;;;4840717;29;20053;-84
2022/02/07 03:10:42;;;;;;;21.40;4.35;;;;;;;;;;4843313;29;20054;-81
2022/02/07 03:13:19;;;;;;;20.70;3.58;;;;;;;;;;4827649;29;20602;-84
2022/02/07 03:18:31;;;;;;;12.88;2.60;;;;;;;;;;4842241;29;20512;-82
2022/02/07 03:20:57;;;;;;;20.65;2.85;;;;;;;;;;4841202;29;20049;-84
2022/02/07 03:23:24;;;;;;;18.05;3.47;;;;;;;;;;4867030;29;20058;-81
2022/02/07 03:25:50;;;;;;;16.05;3.30;;;;;;;;;;4858320;29;20053;-85
2022/02/07 03:28:17;;;;;;;21.40;3.25;;;;;;;;;;4842676;29;20057;-84
2022/02/07 03:30:43;;;;;;;27.63;3.60;;;;;;;;;;4872561;29;20520;-85
2022/02/07 03:33:09;;;;;;;28.00;3.30;;;;;;;;;;4838112;29;20377;-83
2022/02/07 03:35:36;;;;;;;23.55;3.38;;;;;;;;;;4841106;29;20113;-82
2022/02/07 03:38:03;;;;;;;32.75;5.72;;;;;;;;;;4856608;29;20093;-84
2022/02/07 03:40:29;;;;;;;29.25;4.40;;;;;;;;;;4870320;29;20041;-83
2022/02/07 03:42:55;;;;;;;35.72;4.28;;;;;;;;;;4841445;29;20216;-85
2022/02/07 03:45:21;;;;;;;23.98;3.83;;;;;;;;;;4823601;29;20053;-82
2022/02/07 03:47:47;;;;;;;27.55;4.75;;;;;;;;;;4809078;29;20621;-83
2022/02/07 03:50:13;;;;;;;31.98;4.25;;;;;;;;;;4836787;29;20174;-83
2022/02/07 03:52:39;;;;;;;29.08;5.65;;;;;;;;;;4871225;29;20053;-86
2022/02/07 03:55:06;;;;;;;32.08;7.10;;;;;;;;;;4838225;29;20045;-83
2022/02/07 03:57:32;;;;;;;39.28;5.53;;;;;;;;;;4807775;29;20518;-83
2022/02/07 04:00:01;;;;;;;30.02;5.45;;;;;;;;;;4840971;29;20052;-83
2022/02/07 04:02:27;;;;;;;32.35;4.45;;;;;;;;;;4840423;29;20056;-84
2022/02/07 04:05:02;;;;;;;32.20;5.15;;;;;;;;;;4826469;29;20046;-82
2022/02/07 04:07:29;;;;;;;39.58;4.53;;;;;;;;;;4849021;29;20054;-80
2022/02/07 04:09:56;;;;;;;28.83;4.22;;;;;;;;;;4852805;29;20042;-84
2022/02/07 04:12:26;;;;;;;35.83;5.68;;;;;;;;;;4837007;29;20070;-84
2022/02/07 04:14:52;;;;;;;33.80;5.10;;;;;;;;;;4838749;29;20136;-85
2022/02/07 04:17:23;;;;;;;32.80;3.97;;;;;;;;;;4852203;29;20656;-84
2022/02/07 04:19:56;;;;;;;34.28;6.35;;;;;;;;;;4825197;29;20227;-84
2022/02/07 04:22:24;;;;;;;29.00;4.97;;;;;;;;;;4825005;29;20058;-84
2022/02/07 04:24:50;;;;;;;33.80;5.03;;;;;;;;;;4839863;29;20228;-85
2022/02/07 04:27:16;;;;;;;31.73;4.95;;;;;;;;;;4836076;29;20053;-81
2022/02/07 04:29:42;;;;;;;29.05;4.38;;;;;;;;;;4839106;29;20056;-83
2022/02/07 04:32:08;;;;;;;39.80;5.30;;;;;;;;;;4867652;29;20037;-84
2022/02/07 04:34:34;;;;;;;31.67;5.13;;;;;;;;;;4839875;29;20049;-83
2022/02/07 04:37:01;;;;;;;42.28;7.57;;;;;;;;;;4837969;29;20060;-84
2022/02/07 04:39:27;;;;;;;26.58;3.97;;;;;;;;;;4852074;29;20413;-84
2022/02/07 04:41:55;;;;;;;34.45;4.88;;;;;;;;;;4822596;29;20049;-84
2022/02/07 04:44:31;;;;;;;24.38;4.55;;;;;;;;;;4853974;29;20057;-84
2022/02/07 04:47:18;;;;;;;38.63;6.28;;;;;;;;;;4838478;29;20577;-84
2022/02/07 04:50:06;;;;;;;37.20;5.88;;;;;;;;;;4837779;29;20137;-83
2022/02/07 04:55:38;;;;;;;37.33;5.00;;;;;;;;;;4811451;29;20057;-81
2022/02/07 05:00:47;;;;;;;34.53;5.60;;;;;;;;;;4839174;29;20049;-83
2022/02/07 05:03:20;;;;;;;38.47;5.50;;;;;;;;;;4845091;29;20091;-84
2022/02/07 05:16:18;;;;;;;12.07;2.20;;;;;;;;;;4839561;29;20049;-85
2022/02/07 05:18:45;;;;;;;11.07;1.95;;;;;;;;;;4839649;29;20053;-84
2022/02/07 05:21:11;;;;;;;10.40;2.00;;;;;;;;;;4839927;29;20117;-85
2022/02/07 05:23:37;;;;;;;8.88;1.52;;;;;;;;;;4837659;29;20374;-82
2022/02/07 05:26:04;;;;;;;9.02;1.25;;;;;;;;;;4808458;29;20084;-84
2022/02/07 05:28:30;;;;;;;7.35;0.93;;;;;;;;;;4822371;29;20057;-88
2022/02/07 05:30:56;;;;;;;12.07;1.70;;;;;;;;;;4832775;29;20128;-80
2022/02/07 05:33:22;;;;;;;12.40;1.65;;;;;;;;;;4846143;29;20046;-80
2022/02/07 05:35:48;;;;;;;15.88;1.92;;;;;;;;;;4828054;29;20070;-79
2022/02/07 05:38:14;;;;;;;15.18;2.42;;;;;;;;;;4832870;29;20062;-85
2022/02/07 05:40:47;;;;;;;14.07;1.90;;;;;;;;;;4851798;29;20515;-78
2022/02/07 05:43:15;;;;;;;12.27;2.13;;;;;;;;;;4869656;29;20084;-79
2022/02/07 05:45:41;;;;;;;15.45;3.35;;;;;;;;;;4850176;29;20469;-79
2022/02/07 05:48:07;;;;;;;15.63;2.80;;;;;;;;;;4825353;29;20072;-83
2022/02/07 05:50:33;;;;;;;26.35;3.05;;;;;;;;;;4837390;29;20045;-82
2022/02/07 05:52:59;;;;;;;17.05;2.28;;;;;;;;;;4838854;29;20129;-83
2022/02/07 05:55:26;;;;;;;17.88;2.97;;;;;;;;;;4853476;29;20125;-83
2022/02/07 05:57:52;;;;;;;22.75;2.72;;;;;;;;;;4839725;29;20045;-84
2022/02/07 06:00:18;;;;;;;18.40;2.50;;;;;;;;;;4823487;29;20049;-84
2022/02/07 06:02:45;;;;;;;15.02;2.78;;;;;;;;;;4821177;29;20060;-83
2022/02/07 06:05:11;;;;;;;27.30;3.42;;;;;;;;;;4820006;29;20508;-84
2022/02/07 06:07:38;;;;;;;23.70;3.40;;;;;;;;;;4820062;29;20045;-83
2022/02/07 06:10:04;;;;;;;22.45;3.67;;;;;;;;;;4852231;29;20042;-83
2022/02/07 06:12:37;;;;;;;27.90;4.18;;;;;;;;;;4853732;29;20077;-85
2022/02/07 06:15:04;;;;;;;25.20;3.53;;;;;;;;;;4838534;29;20131;-83
2022/02/07 06:17:33;;;;;;;24.38;3.30;;;;;;;;;;4842069;29;20061;-83
2022/02/07 06:20:00;;;;;;;24.80;3.92;;;;;;;;;;4839280;29;20399;-85
2022/02/07 06:22:27;;;;;;;26.58;4.38;;;;;;;;;;4854239;29;20065;-85
2022/02/07 06:24:53;;;;;;;22.25;4.32;;;;;;;;;;4853959;29;20050;-84
2022/02/07 06:27:19;;;;;;;18.40;3.58;;;;;;;;;;4835761;29;20060;-84
2022/02/07 06:29:46;;;;;;;34.30;3.92;;;;;;;;;;4840160;29;20045;-82
2022/02/07 06:32:12;;;;;;;34.03;4.82;;;;;;;;;;4825980;29;20057;-83
2022/02/07 06:34:39;;;;;;;37.40;5.75;;;;;;;;;;4855804;29;20052;-83
2022/02/07 06:37:05;;;;;;;23.20;4.55;;;;;;;;;;4855055;29;20049;-84
2022/02/07 06:39:31;;;;;;;25.58;4.65;;;;;;;;;;4826362;29;20089;-82
2022/02/07 06:41:58;;;;;;;27.80;4.35;;;;;;;;;;4838403;29;20046;-83
2022/02/07 06:44:26;;;;;;;32.40;4.90;;;;;;;;;;4825191;29;20045;-84
2022/02/07 06:46:52;;;;;;;30.33;4.68;;;;;;;;;;4847094;29;20136;-85
2022/02/07 06:49:18;;;;;;;29.80;4.80;;;;;;;;;;4846024;29;20053;-81
2022/02/07 06:51:44;;;;;;;25.48;4.80;;;;;;;;;;4828900;29;20095;-85
2022/02/07 06:54:10;;;;;;;27.40;4.13;;;;;;;;;;4852259;29;20057;-86
2022/02/07 06:56:36;;;;;;;27.90;4.85;;;;;;;;;;4827624;29;20057;-85
2022/02/07 06:59:03;;;;;;;36.15;4.15;;;;;;;;;;4845455;29;20553;-86
2022/02/07 07:01:30;;;;;;;32.55;4.00;;;;;;;;;;4816028;29;20054;-84
2022/02/07 07:03:56;;;;;;;35.28;4.75;;;;;;;;;;4842375;29;20060;-85
2022/02/07 07:06:22;;;;;;;27.15;4.43;;;;;;;;;;4819728;29;20053;-84
2022/02/07 07:08:52;;;;;;;36.20;5.88;;;;;;;;;;4849428;29;20098;-86
2022/02/07 07:11:22;;;;;;;30.65;4.80;;;;;;;;;;4845801;29;20066;-86
2022/02/07 07:13:53;;;;;;;34.20;5.38;;;;;;;;;;4845521;29;20052;-86
2022/02/07 07:18:54;;;;;;;38.90;5.32;;;;;;;;;;4858335;29;20050;-86
2022/02/07 07:21:20;;;;;;;33.70;6.10;;;;;;;;;;4841589;29;20078;-86
2022/02/07 07:23:46;;;;;;;29.42;4.60;;;;;;;;;;4839311;29;20449;-85
2022/02/07 07:26:12;;;;;;;33.63;6.22;;;;;;;;;;4843415;29;20053;-87
2022/02/07 07:28:40;;;;;;;32.85;6.65;;;;;;;;;;4827648;29;20061;-85
2022/02/07 07:31:09;;;;;;;33.10;5.25;;;;;;;;;;4868247;29;20076;-86
2022/02/07 07:33:37;;;;;;;38.33;5.88;;;;;;;;;;4829972;29;20064;-84
2022/02/07 07:36:03;;;;;;;42.67;6.18;;;;;;;;;;4826761;29;20050;-86
2022/02/07 07:38:29;;;;;;;43.67;7.05;;;;;;;;;;4863853;29;20049;-85
2022/02/07 07:40:55;;;;;;;39.00;5.88;;;;;;;;;;4863647;29;20369;-85
2022/02/07 07:43:22;;;;;;;57.03;5.95;;;;;;;;;;4842014;29;20056;-86
2022/02/07 07:45:59;;;;;;;40.65;5.88;;;;;;;;;;4852565;29;20515;-86
2022/02/07 07:48:26;;;;;;;36.47;5.95;;;;;;;;;;4842414;29;20481;-87
2022/02/07 07:51:08;;;;;;;42.05;5.75;;;;;;;;;;4842191;29;20057;-84
2022/02/07 08:01:54;;;;;;;43.50;5.82;;;;;;;;;;4844044;29;20113;-86
2022/02/07 08:04:26;;;;;;;35.97;5.63;;;;;;;;;;4846874;29;20305;-85
2022/02/07 08:10:29;;;;;;;45.30;6.35;;;;;;;;;;4836156;29;20132;-85
2022/02/07 08:12:16;;;;;;;37.83;5.30;;;;;;;;;;4832421;29;20050;-85
2022/02/07 08:14:43;;;;;;;38.60;5.00;;;;;;;;;;4838648;29;20049;-85
2022/02/07 08:17:09;;;;;;;38.67;6.40;;;;;;;;;;4813711;29;20046;-86
2022/02/07 08:19:37;;;;;;;37.42;6.20;;;;;;;;;;4838562;29;20048;-85
2022/02/07 08:22:05;;;;;;;42.33;6.78;;;;;;;;;;4827493;29;20060;-85
2022/02/07 08:24:31;;;;;;;51.38;6.93;;;;;;;;;;4841727;29;20085;-84
2022/02/07 08:26:58;;;;;;;55.58;8.20;;;;;;;;;;4840886;29;20061;-82
2022/02/07 08:29:24;;;;;;;52.85;7.90;;;;;;;;;;4833244;29;20045;-85
2022/02/07 08:31:50;;;;;;;33.63;4.75;;;;;;;;;;4829317;29;20072;-81
2022/02/07 08:34:16;;;;;;;31.60;5.70;;;;;;;;;;4842079;29;20112;-80
2022/02/07 08:36:43;;;;;;;35.20;4.90;;;;;;;;;;4835426;29;20045;-79
2022/02/07 08:39:09;;;;;;;38.05;5.90;;;;;;;;;;4808726;29;20109;-79
2022/02/07 08:41:35;;;;;;;35.65;5.72;;;;;;;;;;4821084;29;20057;-82
2022/02/07 08:44:01;;;;;;;36.42;5.10;;;;;;;;;;4848471;29;20064;-84
2022/02/07 08:46:27;;;;;;;42.03;5.88;;;;;;;;;;4833637;29;20422;-82
2022/02/07 08:48:53;;;;;;;31.20;5.47;;;;;;;;;;4833908;29;20042;-83
2022/02/07 08:51:20;;;;;;;32.33;5.88;;;;;;;;;;4850937;29;20057;-82
2022/02/07 08:53:48;;;;;;;27.73;5.57;;;;;;;;;;4835464;29;20053;-82
2022/02/07 08:56:16;;;;;;;36.83;5.68;;;;;;;;;;4837534;29;20046;-81
2022/02/07 08:58:45;;;;;;;28.63;4.72;;;;;;;;;;4842940;29;20149;-82
2022/02/07 09:01:24;;;;;;;36.22;5.05;;;;;;;;;;4841665;29;20404;-82
2022/02/07 09:11:20;;;;;;;33.03;5.95;;;;;;;;;;4842995;29;20056;-75
2022/02/07 09:13:47;;;;;;;35.30;5.95;;;;;;;;;;4838371;29;20157;-76
2022/02/07 09:18:41;;;;;;;30.38;4.97;;;;;;;;;;4846360;29;20057;-80
2022/02/07 09:21:08;;;;;;;35.30;5.97;;;;;;;;;;4869633;29;20057;-76
2022/02/07 09:23:35;;;;;;;34.92;5.85;;;;;;;;;;4829440;29;20061;-80
2022/02/07 09:26:01;;;;;;;29.00;5.30;;;;;;;;;;4866436;29;20049;-81
2022/02/07 09:28:28;;;;;;;32.13;5.43;;;;;;;;;;4850500;29;20161;-80
2022/02/07 09:30:54;;;;;;;33.15;6.43;;;;;;;;;;4852628;29;20049;-80
2022/02/07 09:33:21;;;;;;;38.55;6.45;;;;;;;;;;4835774;29;20046;-83
2022/02/07 09:35:49;;;;;;;32.25;5.40;;;;;;;;;;4835333;29;20056;-80
2022/02/07 09:38:15;;;;;;;31.05;5.38;;;;;;;;;;4840872;29;20084;-80
2022/02/07 09:40:42;;;;;;;44.03;6.85;;;;;;;;;;4811631;29;20117;-81
2022/02/07 09:43:09;;;;;;;34.05;5.30;;;;;;;;;;4823135;29;20057;-80
2022/02/07 09:45:41;;;;;;;38.85;6.18;;;;;;;;;;4841084;29;20068;-77
2022/02/07 09:48:10;;;;;;;36.78;5.53;;;;;;;;;;4838798;29;20493;-81
2022/02/07 09:50:37;;;;;;;31.10;5.22;;;;;;;;;;4825745;29;20084;-81
2022/02/07 09:53:04;;;;;;;27.67;4.63;;;;;;;;;;4856037;29;20053;-79
2022/02/07 09:55:33;;;;;;;34.47;5.70;;;;;;;;;;4836987;29;20077;-81
2022/02/07 09:57:59;;;;;;;33.67;4.60;;;;;;;;;;4834552;29;20045;-80
2022/02/07 10:00:32;;;;;;;29.45;5.82;;;;;;;;;;4820419;29;21757;-82
2022/02/07 10:03:09;;;;;;;27.88;5.18;;;;;;;;;;4836839;29;20119;-79
2022/02/07 10:05:53;;;;;;;26.45;5.05;;;;;;;;;;4838110;29;20110;-78
2022/02/07 10:08:44;;;;;;;35.95;5.78;;;;;;;;;;4832458;29;20085;-78
2022/02/07 10:19:35;;;;;;;32.10;5.07;;;;;;;;;;4837690;29;20206;-79
2022/02/07 10:38:50;;;;;;;42.58;5.72;;;;;;;;;;4790505;29;20050;-80
2022/02/07 10:41:42;;;;;;;31.40;4.78;;;;;;;;;;4824368;29;20054;-86
2022/02/07 10:44:48;;;;;;;28.30;5.57;;;;;;;;;;4821815;29;20078;-82
2022/02/07 10:47:22;;;;;;;34.05;4.32;;;;;;;;;;4823169;29;20081;-78
2022/02/07 10:49:59;;;;;;;32.28;4.63;;;;;;;;;;4818750;29;20110;-77
2022/02/07 10:52:25;;;;;;;33.10;5.03;;;;;;;;;;4809007;29;20129;-80
2022/02/07 10:54:51;;;;;;;29.38;4.95;;;;;;;;;;4825120;29;20104;-80
2022/02/07 10:57:19;;;;;;;24.45;4.72;;;;;;;;;;4819499;29;20053;-79
2022/02/07 10:59:45;;;;;;;25.50;4.45;;;;;;;;;;4821953;29;20174;-77
2022/02/07 11:02:42;;;;;;;29.35;4.32;;;;;;;;;;4819912;29;20342;-77
2022/02/07 11:05:12;;;;;;;31.98;5.35;;;;;;;;;;4820277;29;20077;-78
2022/02/07 11:07:39;;;;;;;23.88;3.85;;;;;;;;;;4826761;29;20149;-78
2022/02/07 11:10:24;;;;;;;30.02;4.93;;;;;;;;;;4834617;29;20042;-80
2022/02/07 11:15:46;;;;;;;26.80;4.57;;;;;;;;;;4823626;29;20081;-81
2022/02/07 11:18:33;;;;;;;34.78;4.40;;;;;;;;;;4799115;29;20132;-85
2022/02/07 11:21:09;;;;;;;24.17;4.03;;;;;;;;;;4806869;29;20068;-82
2022/02/07 11:24:02;;;;;;;20.92;4.45;;;;;;;;;;4808503;29;20073;-81
2022/02/07 11:26:29;;;;;;;29.20;4.93;;;;;;;;;;4810249;29;20513;-77
2022/02/07 11:28:55;;;;;;;26.23;4.38;;;;;;;;;;4806894;29;20120;-82
2022/02/07 11:31:34;;;;;;;26.55;4.72;;;;;;;;;;4822340;29;20093;-79
2022/02/07 11:34:11;;;;;;;28.58;4.43;;;;;;;;;;4824804;29;20442;-83
2022/02/07 11:36:38;;;;;;;27.83;3.92;;;;;;;;;;4803802;29;20065;-83
2022/02/07 11:39:07;;;;;;;27.10;4.60;;;;;;;;;;4806349;29;20375;-80
2022/02/07 11:41:52;;;;;;;25.05;3.70;;;;;;;;;;4819270;29;20082;-78
2022/02/07 11:44:18;;;;;;;22.80;4.65;;;;;;;;;;4821568;29;20045;-81
2022/02/07 11:46:44;;;;;;;23.58;4.07;;;;;;;;;;4808571;29;20065;-85
2022/02/07 11:49:10;;;;;;;30.98;4.57;;;;;;;;;;4808709;29;20119;-80
2022/02/07 11:51:38;;;;;;;30.25;4.72;;;;;;;;;;4836547;29;20054;-76
2022/02/07 11:54:05;;;;;;;25.23;3.67;;;;;;;;;;4822397;29;20045;-76
2022/02/07 11:56:46;;;;;;;25.10;3.83;;;;;;;;;;4822196;29;20142;-79
2022/02/07 11:59:22;;;;;;;19.15;3.03;;;;;;;;;;4822072;29;20458;-81
2022/02/07 12:01:49;;;;;;;23.75;3.55;;;;;;;;;;4823940;29;20060;-79
2022/02/07 12:04:37;;;;;;;27.95;5.95;;;;;;;;;;4809259;29;20058;-80
2022/02/07 12:07:06;;;;;;;31.38;3.92;;;;;;;;;;4835597;29;20050;-79
2022/02/07 12:09:33;;;;;;;28.45;4.25;;;;;;;;;;4822246;29;20125;-78
2022/02/07 12:11:59;;;;;;;23.08;3.72;;;;;;;;;;4807862;29;20080;-79
2022/02/07 12:14:35;;;;;;;19.23;3.30;;;;;;;;;;4836699;29;20102;-80
2022/02/07 12:17:02;;;;;;;18.70;3.20;;;;;;;;;;4825369;29;20766;-78
2022/02/07 12:19:35;;;;;;;20.05;4.10;;;;;;;;;;4839960;29;20501;-78
2022/02/07 12:22:14;;;;;;;27.25;4.38;;;;;;;;;;4837340;29;20062;-76
2022/02/07 12:24:52;;;;;;;26.13;4.00;;;;;;;;;;4814728;29;20481;-78
2022/02/07 12:27:20;;;;;;;24.95;3.28;;;;;;;;;;4825091;29;20046;-79
2022/02/07 12:32:35;;;;;;;18.05;3.95;;;;;;;;;;4804290;29;20215;-79
2022/02/07 12:35:03;;;;;;;24.05;4.05;;;;;;;;;;4806968;29;20142;-76
2022/02/07 12:37:34;;;;;;;26.80;3.55;;;;;;;;;;4820763;29;20125;-74
2022/02/07 12:40:04;;;;;;;33.92;5.45;;;;;;;;;;4821365;29;20438;-79
2022/02/07 12:42:30;;;;;;;28.80;4.00;;;;;;;;;;4806228;29;20662;-77
2022/02/07 12:45:00;;;;;;;23.45;3.55;;;;;;;;;;4818505;29;20180;-79
2022/02/07 12:47:26;;;;;;;26.17;3.95;;;;;;;;;;4834144;29;20126;-77
2022/02/07 12:49:56;;;;;;;22.65;3.65;;;;;;;;;;4805682;29;20430;-83
2022/02/07 12:52:42;;;;;;;20.95;3.40;;;;;;;;;;4815971;29;20058;-78
2022/02/07 12:55:13;;;;;;;22.33;4.43;;;;;;;;;;4806688;29;20054;-75
2022/02/07 12:57:40;;;;;;;23.25;3.63;;;;;;;;;;4800894;29;20054;-82
2022/02/07 13:00:10;;;;;;;16.65;3.50;;;;;;;;;;4818983;29;20045;-75
2022/02/07 13:02:40;;;;;;;24.35;4.82;;;;;;;;;;4818062;29;20053;-76
2022/02/07 13:05:09;;;;;;;20.52;3.50;;;;;;;;;;4827264;29;20081;-76
2022/02/07 13:07:41;;;;;;;24.50;4.22;;;;;;;;;;4809121;29;20064;-78
2022/02/07 13:10:09;;;;;;;28.75;3.38;;;;;;;;;;4822156;29;20042;-76
2022/02/07 13:12:52;;;;;;;24.38;3.67;;;;;;;;;;4820653;29;20062;-75
2022/02/07 13:15:23;;;;;;;25.92;2.90;;;;;;;;;;4818930;29;20054;-76
2022/02/07 13:17:55;;;;;;;24.55;3.10;;;;;;;;;;4820754;29;20617;-75
2022/02/07 13:20:22;;;;;;;20.42;3.70;;;;;;;;;;4805150;29;20046;-74
2022/02/07 13:22:48;;;;;;;20.55;3.10;;;;;;;;;;4836290;29;20085;-73
2022/02/07 13:25:15;;;;;;;30.70;3.83;;;;;;;;;;4848673;29;20058;-75
2022/02/07 13:27:41;;;;;;;25.20;4.63;;;;;;;;;;4826123;29;20457;-79
2022/02/07 13:30:12;;;;;;;25.88;3.60;;;;;;;;;;4835204;29;20080;-79
2022/02/07 13:32:39;;;;;;;29.15;3.10;;;;;;;;;;4848256;29;20053;-80
2022/02/07 13:35:10;;;;;;;21.40;3.30;;;;;;;;;;4837534;29;20179;-79
2022/02/07 13:37:38;;;;;;;21.83;3.10;;;;;;;;;;4834291;29;20046;-78
2022/02/07 13:40:12;;;;;;;16.38;2.88;;;;;;;;;;4824245;29;20086;-82
2022/02/07 13:42:40;;;;;;;23.98;3.33;;;;;;;;;;4803389;29;20054;-82
2022/02/07 13:45:10;;;;;;;23.88;4.40;;;;;;;;;;4820639;29;20354;-79
2022/02/07 13:47:38;;;;;;;20.15;2.65;;;;;;;;;;4803641;29;20057;-77
2022/02/07 13:50:09;;;;;;;14.40;2.53;;;;;;;;;;4819876;29;20046;-80
2022/02/07 13:52:36;;;;;;;19.55;3.15;;;;;;;;;;4838273;29;20518;-82
2022/02/07 13:55:22;;;;;;;26.15;2.85;;;;;;;;;;4804820;29;20462;-84
2022/02/07 13:57:52;;;;;;;13.82;2.60;;;;;;;;;;4802795;29;20493;-78
2022/02/07 14:00:20;;;;;;;15.82;2.95;;;;;;;;;;4821988;29;20129;-77
2022/02/07 14:02:47;;;;;;;29.90;4.30;;;;;;;;;;4835589;29;20119;-78
2022/02/07 14:05:14;;;;;;;20.52;3.17;;;;;;;;;;4832518;29;20136;-78
2022/02/07 14:07:54;;;;;;;22.95;3.80;;;;;;;;;;4836908;29;20062;-78
2022/02/07 14:10:21;;;;;;;30.98;3.85;;;;;;;;;;4822415;29;20064;-82
2022/02/07 14:12:51;;;;;;;21.50;4.43;;;;;;;;;;4828083;29;20542;-81
2022/02/07 14:15:18;;;;;;;26.05;3.92;;;;;;;;;;4842072;29;20050;-79
2022/02/07 14:17:45;;;;;;;21.92;2.85;;;;;;;;;;4852257;29;20076;-92
2022/02/07 14:20:17;;;;;;;20.13;3.33;;;;;;;;;;4825590;29;20458;-86
2022/02/07 14:22:43;;;;;;;20.35;3.58;;;;;;;;;;4807085;29;20062;-78
2022/02/07 14:25:12;;;;;;;22.48;2.75;;;;;;;;;;4825665;29;20054;-78
2022/02/07 14:27:38;;;;;;;19.58;2.70;;;;;;;;;;4808420;29;20129;-81
2022/02/07 14:30:04;;;;;;;17.73;2.83;;;;;;;;;;4805275;29;20046;-80
2022/02/07 14:32:31;;;;;;;14.80;2.70;;;;;;;;;;4804697;29;20405;-78
2022/02/07 14:34:57;;;;;;;29.70;3.13;;;;;;;;;;4805949;29;20088;-80
2022/02/07 14:37:24;;;;;;;16.63;2.42;;;;;;;;;;4806204;29;20050;-89
2022/02/07 14:39:50;;;;;;;15.75;3.50;;;;;;;;;;4837642;29;20499;-87
2022/02/07 14:42:17;;;;;;;23.65;3.40;;;;;;;;;;4823715;29;20081;-84
2022/02/07 14:44:57;;;;;;;21.90;2.78;;;;;;;;;;4807979;29;20042;-93
2022/02/07 14:47:39;;;;;;;15.23;2.40;;;;;;;;;;4821277;29;20068;-87
2022/02/07 14:50:06;;;;;;;16.48;2.55;;;;;;;;;;4808282;29;20541;-87
2022/02/07 14:52:32;;;;;;;21.92;2.58;;;;;;;;;;4808398;29;20090;-83
2022/02/07 14:54:58;;;;;;;18.90;2.45;;;;;;;;;;4806613;29;20521;-79
2022/02/07 14:57:24;;;;;;;14.15;2.25;;;;;;;;;;4820587;29;20074;-80
2022/02/07 14:59:50;;;;;;;17.23;2.58;;;;;;;;;;4807552;29;20084;-82
2022/02/07 15:02:18;;;;;;;20.67;2.28;;;;;;;;;;4792200;29;20065;-82
2022/02/07 15:04:45;;;;;;;15.38;2.42;;;;;;;;;;4835322;29;20049;-80
2022/02/07 15:07:11;;;;;;;22.33;2.80;;;;;;;;;;4820274;29;20082;-80
2022/02/07 15:09:38;;;;;;;16.40;2.60;;;;;;;;;;4821913;29;20508;-80
2022/02/07 15:12:04;;;;;;;26.65;2.85;;;;;;;;;;4824059;29;20125;-80
2022/02/07 15:14:30;;;;;;;22.05;2.65;;;;;;;;;;4824401;29;20042;-80
2022/02/07 15:16:56;;;;;;;19.67;2.92;;;;;;;;;;4807206;29;20509;-76
2022/02/07 15:19:24;;;;;;;16.90;4.18;;;;;;;;;;4807704;29;20050;-78
2022/02/07 15:21:50;;;;;;;17.58;2.60;;;;;;;;;;4807598;29;20110;-80
2022/02/07 15:24:16;;;;;;;20.80;4.93;;;;;;;;;;4822950;29;20113;-83
2022/02/07 15:26:45;;;;;;;17.50;2.45;;;;;;;;;;4808621;29;20053;-78
2022/02/07 15:29:13;;;;;;;16.58;2.40;;;;;;;;;;4807042;29;20050;-77
2022/02/07 15:31:44;;;;;;;17.08;2.35;;;;;;;;;;4822233;29;20053;-83
2022/02/07 15:34:10;;;;;;;19.70;2.78;;;;;;;;;;4834757;29;20073;-81
2022/02/07 15:36:36;;;;;;;16.55;2.38;;;;;;;;;;4822073;29;20113;-89
2022/02/07 15:39:03;;;;;;;21.20;2.30;;;;;;;;;;4812592;29;20095;-82
2022/02/07 15:41:30;;;;;;;18.48;2.95;;;;;;;;;;4808840;29;20104;-82
2022/02/07 15:43:56;;;;;;;13.15;2.30;;;;;;;;;;4823673;29;20046;-83
2022/02/07 15:46:23;;;;;;;19.75;3.45;;;;;;;;;;4811585;29;20048;-81
2022/02/07 15:48:50;;;;;;;16.83;2.53;;;;;;;;;;4825892;29;20061;-80
2022/02/07 15:51:16;;;;;;;20.20;3.28;;;;;;;;;;4824289;29;20054;-73
2022/02/07 15:53:42;;;;;;;16.75;3.05;;;;;;;;;;4824410;29;20046;-76
2022/02/07 15:56:08;;;;;;;19.33;2.97;;;;;;;;;;4804748;29;20046;-77
2022/02/07 15:58:35;;;;;;;26.33;4.53;;;;;;;;;;4822032;29;20053;-79
2022/02/07 16:01:01;;;;;;;19.33;3.53;;;;;;;;;;4805820;29;20041;-77
2022/02/07 16:03:27;;;;;;;17.35;3.35;;;;;;;;;;4822039;29;20122;-74
2022/02/07 16:05:53;;;;;;;15.35;3.55;;;;;;;;;;4825093;29;20481;-81
2022/02/07 16:08:19;;;;;;;22.85;2.85;;;;;;;;;;4824572;29;20132;-80
2022/02/07 16:10:46;;;;;;;22.27;3.85;;;;;;;;;;4833392;29;20053;-76
2022/02/07 16:15:41;;;;;;;18.83;2.25;;;;;;;;;;4821737;29;20571;-78
2022/02/07 16:18:07;;;;;;;13.57;2.05;;;;;;;;;;4807085;29;20133;-74
2022/02/07 16:20:35;;;;;;;14.90;2.50;;;;;;;;;;4821032;29;20099;-76
2022/02/07 16:23:02;;;;;;;17.02;3.28;;;;;;;;;;4817478;29;20072;-76
2022/02/07 16:25:29;;;;;;;15.50;2.10;;;;;;;;;;4801100;29;20491;-81
2022/02/07 16:27:55;;;;;;;18.17;2.15;;;;;;;;;;4815409;29;20050;-81
2022/02/07 16:30:21;;;;;;;24.30;3.00;;;;;;;;;;4811846;29;20076;-81
2022/02/07 16:32:47;;;;;;;12.15;2.03;;;;;;;;;;4795990;29;20046;-78
2022/02/07 16:35:13;;;;;;;22.17;2.80;;;;;;;;;;4806732;29;20178;-77
2022/02/07 16:37:41;;;;;;;20.05;2.83;;;;;;;;;;4823724;29;20046;-77
2022/02/07 16:40:07;;;;;;;18.20;3.30;;;;;;;;;;4817604;29;20046;-77
2022/02/07 16:42:36;;;;;;;15.23;2.78;;;;;;;;;;4816657;29;20062;-80
2022/02/07 16:45:06;;;;;;;19.58;3.05;;;;;;;;;;4799758;29;20501;-76
2022/02/07 16:47:32;;;;;;;20.73;3.15;;;;;;;;;;4812401;29;20046;-85
2022/02/07 16:49:58;;;;;;;17.35;2.75;;;;;;;;;;4799057;29;20408;-83
2022/02/07 16:52:24;;;;;;;23.48;2.85;;;;;;;;;;4804371;29;20057;-89
2022/02/07 16:54:51;;;;;;;20.30;2.80;;;;;;;;;;4804931;29;20050;-79
2022/02/07 16:57:17;;;;;;;15.63;2.30;;;;;;;;;;4816939;29;20106;-81
2022/02/07 16:59:43;;;;;;;26.55;2.97;;;;;;;;;;4824259;29;20103;-76
2022/02/07 17:02:10;;;;;;;18.77;2.50;;;;;;;;;;4814920;29;20049;-81
2022/02/07 17:04:36;;;;;;;24.73;2.60;;;;;;;;;;4815246;29;20053;-89